sensor_id;sensor_type;location;lat;lon;timestamp;P1;durP1;ratioP1;P2;durP2;ratioP2
53718;SDS011;39616;48.872;9.390;2022-09-12T00:01:42;14.25;;;7.72;;
53718;SDS011;39616;48.872;9.390;2022-09-12T00:04:12;12.90;;;7.65;;
53718;SDS011;39616;48.872;9.390;2022-09-12T00:06:43;8.88;;;6.97;;
53718;SDS011;39616;48.872;9.390;2022-09-12T00:09:14;14.00;;;8.93;;
53718;SDS011;39616;48.872;9.390;2022-09-12T00:11:45;11.00;;;6.50;;
53718;SDS011;39616;48.872;9.390;2022-09-12T00:14:17;11.57;;;6.65;;
53718;SDS011;39616;48.872;9.390;2022-09-12T00:16:48;11.60;;;7.00;;
53718;SDS011;39616;48.872;9.390;2022-09-12T00:19:18;9.43;;;6.32;;
53718;SDS011;39616;48.872;9.390;2022-09-12T00:21:49;10.25;;;6.55;;
53718;SDS011;39616;48.872;9.390;2022-09-12T00:24:19;13.38;;;6.70;;
53718;SDS011;39616;48.872;9.390;2022-09-12T00:26:49;8.95;;;7.45;;
53718;SDS011;39616;48.872;9.390;2022-09-12T00:29:20;8.35;;;6.55;;
53718;SDS011;39616;48.872;9.390;2022-09-12T00:31:51;9.48;;;7.32;;
53718;SDS011;39616;48.872;9.390;2022-09-12T00:34:21;9.65;;;6.88;;
53718;SDS011;39616;48.872;9.390;2022-09-12T00:36:52;10.23;;;7.15;;
53718;SDS011;39616;48.872;9.390;2022-09-12T00:39:22;9.80;;;7.35;;
53718;SDS011;39616;48.872;9.390;2022-09-12T00:41:52;11.88;;;7.82;;
53718;SDS011;39616;48.872;9.390;2022-09-12T00:49:33;10.02;;;7.47;;
53718;SDS011;39616;48.872;9.390;2022-09-12T00:54:50;9.13;;;6.65;;
53718;SDS011;39616;48.872;9.390;2022-09-12T00:57:28;12.60;;;8.35;;
53718;SDS011;39616;48.872;9.390;2022-09-12T01:00:05;13.45;;;9.05;;
53718;SDS011;39616;48.872;9.390;2022-09-12T01:02:52;9.25;;;6.05;;
53718;SDS011;39616;48.872;9.390;2022-09-12T01:05:26;7.97;;;6.25;;
53718;SDS011;39616;48.872;9.390;2022-09-12T01:07:58;9.77;;;7.18;;
53718;SDS011;39616;48.872;9.390;2022-09-12T01:10:32;7.20;;;6.20;;
53718;SDS011;39616;48.872;9.390;2022-09-12T01:13:06;9.32;;;6.53;;
53718;SDS011;39616;48.872;9.390;2022-09-12T01:15:37;9.95;;;6.15;;
53718;SDS011;39616;48.872;9.390;2022-09-12T01:32:14;13.63;;;6.70;;
53718;SDS011;39616;48.872;9.390;2022-09-12T01:34:54;8.90;;;6.30;;
53718;SDS011;39616;48.872;9.390;2022-09-12T01:43:51;9.50;;;6.57;;
53718;SDS011;39616;48.872;9.390;2022-09-12T01:46:42;10.30;;;6.45;;
53718;SDS011;39616;48.872;9.390;2022-09-12T01:49:24;11.75;;;7.38;;
53718;SDS011;39616;48.872;9.390;2022-09-12T01:52:07;8.93;;;6.20;;
53718;SDS011;39616;48.872;9.390;2022-09-12T01:54:49;9.90;;;5.68;;
53718;SDS011;39616;48.872;9.390;2022-09-12T01:57:28;9.98;;;6.15;;
53718;SDS011;39616;48.872;9.390;2022-09-12T02:00:06;10.68;;;6.40;;
53718;SDS011;39616;48.872;9.390;2022-09-12T02:02:41;9.90;;;6.25;;
53718;SDS011;39616;48.872;9.390;2022-09-12T02:05:24;10.80;;;6.70;;
53718;SDS011;39616;48.872;9.390;2022-09-12T02:08:05;10.52;;;6.50;;
53718;SDS011;39616;48.872;9.390;2022-09-12T02:11:12;11.77;;;6.78;;
53718;SDS011;39616;48.872;9.390;2022-09-12T02:13:46;10.27;;;6.43;;
53718;SDS011;39616;48.872;9.390;2022-09-12T02:16:28;8.63;;;6.75;;
53718;SDS011;39616;48.872;9.390;2022-09-12T02:19:26;10.90;;;7.15;;
53718;SDS011;39616;48.872;9.390;2022-09-12T02:21:59;8.85;;;5.78;;
53718;SDS011;39616;48.872;9.390;2022-09-12T02:24:37;7.95;;;6.20;;
53718;SDS011;39616;48.872;9.390;2022-09-12T02:27:14;9.45;;;6.18;;
53718;SDS011;39616;48.872;9.390;2022-09-12T02:29:49;9.55;;;6.72;;
53718;SDS011;39616;48.872;9.390;2022-09-12T02:40:51;12.93;;;8.15;;
53718;SDS011;39616;48.872;9.390;2022-09-12T02:43:21;10.30;;;7.53;;
53718;SDS011;39616;48.872;9.390;2022-09-12T02:45:52;14.82;;;7.22;;
53718;SDS011;39616;48.872;9.390;2022-09-12T02:48:26;8.73;;;6.63;;
53718;SDS011;39616;48.872;9.390;2022-09-12T02:51:01;8.85;;;6.28;;
53718;SDS011;39616;48.872;9.390;2022-09-12T02:53:32;9.10;;;6.68;;
53718;SDS011;39616;48.872;9.390;2022-09-12T02:56:04;8.63;;;6.68;;
53718;SDS011;39616;48.872;9.390;2022-09-12T02:58:40;10.77;;;6.50;;
53718;SDS011;39616;48.872;9.390;2022-09-12T03:04:04;10.45;;;6.85;;
53718;SDS011;39616;48.872;9.390;2022-09-12T03:07:00;9.73;;;5.95;;
53718;SDS011;39616;48.872;9.390;2022-09-12T03:12:36;8.30;;;5.95;;
53718;SDS011;39616;48.872;9.390;2022-09-12T03:23:42;10.63;;;7.05;;
53718;SDS011;39616;48.872;9.390;2022-09-12T03:26:31;9.85;;;6.22;;
53718;SDS011;39616;48.872;9.390;2022-09-12T03:29:07;7.75;;;5.65;;
53718;SDS011;39616;48.872;9.390;2022-09-12T03:31:46;12.18;;;6.80;;
53718;SDS011;39616;48.872;9.390;2022-09-12T03:34:21;11.73;;;6.72;;
53718;SDS011;39616;48.872;9.390;2022-09-12T03:36:53;10.18;;;7.18;;
53718;SDS011;39616;48.872;9.390;2022-09-12T03:39:27;8.63;;;5.93;;
53718;SDS011;39616;48.872;9.390;2022-09-12T03:41:57;15.15;;;7.75;;
53718;SDS011;39616;48.872;9.390;2022-09-12T03:44:27;13.73;;;7.55;;
53718;SDS011;39616;48.872;9.390;2022-09-12T03:46:58;13.52;;;7.35;;
53718;SDS011;39616;48.872;9.390;2022-09-12T03:49:28;13.57;;;7.75;;
53718;SDS011;39616;48.872;9.390;2022-09-12T03:51:58;11.25;;;6.72;;
53718;SDS011;39616;48.872;9.390;2022-09-12T03:54:29;10.90;;;7.03;;
53718;SDS011;39616;48.872;9.390;2022-09-12T03:56:59;16.77;;;7.20;;
53718;SDS011;39616;48.872;9.390;2022-09-12T03:59:29;10.00;;;6.93;;
53718;SDS011;39616;48.872;9.390;2022-09-12T04:01:59;16.00;;;6.85;;
53718;SDS011;39616;48.872;9.390;2022-09-12T04:04:30;9.35;;;6.50;;
53718;SDS011;39616;48.872;9.390;2022-09-12T04:07:01;12.07;;;7.00;;
53718;SDS011;39616;48.872;9.390;2022-09-12T04:09:31;10.40;;;6.30;;
53718;SDS011;39616;48.872;9.390;2022-09-12T04:12:02;9.10;;;7.03;;
53718;SDS011;39616;48.872;9.390;2022-09-12T04:14:33;11.80;;;7.13;;
53718;SDS011;39616;48.872;9.390;2022-09-12T04:17:03;10.63;;;7.25;;
53718;SDS011;39616;48.872;9.390;2022-09-12T04:19:33;9.30;;;6.18;;
53718;SDS011;39616;48.872;9.390;2022-09-12T04:22:04;12.85;;;7.18;;
53718;SDS011;39616;48.872;9.390;2022-09-12T04:24:34;15.02;;;7.95;;
53718;SDS011;39616;48.872;9.390;2022-09-12T04:27:05;12.77;;;6.90;;
53718;SDS011;39616;48.872;9.390;2022-09-12T04:29:35;10.13;;;6.90;;
53718;SDS011;39616;48.872;9.390;2022-09-12T04:32:05;9.20;;;6.18;;
53718;SDS011;39616;48.872;9.390;2022-09-12T04:34:36;11.32;;;7.35;;
53718;SDS011;39616;48.872;9.390;2022-09-12T04:37:06;10.75;;;6.93;;
53718;SDS011;39616;48.872;9.390;2022-09-12T04:39:36;10.88;;;7.22;;
53718;SDS011;39616;48.872;9.390;2022-09-12T04:42:07;12.70;;;7.38;;
53718;SDS011;39616;48.872;9.390;2022-09-12T04:44:37;14.00;;;7.63;;
53718;SDS011;39616;48.872;9.390;2022-09-12T04:47:07;10.00;;;6.95;;
53718;SDS011;39616;48.872;9.390;2022-09-12T04:49:38;9.80;;;6.82;;
53718;SDS011;39616;48.872;9.390;2022-09-12T04:52:08;10.55;;;7.45;;
53718;SDS011;39616;48.872;9.390;2022-09-12T04:54:38;9.30;;;6.22;;
53718;SDS011;39616;48.872;9.390;2022-09-12T04:57:09;9.20;;;6.57;;
53718;SDS011;39616;48.872;9.390;2022-09-12T04:59:39;10.02;;;5.60;;
53718;SDS011;39616;48.872;9.390;2022-09-12T05:02:10;11.48;;;6.68;;
53718;SDS011;39616;48.872;9.390;2022-09-12T05:04:40;10.45;;;6.72;;
53718;SDS011;39616;48.872;9.390;2022-09-12T05:07:10;9.55;;;7.00;;
53718;SDS011;39616;48.872;9.390;2022-09-12T05:09:40;20.63;;;7.95;;
53718;SDS011;39616;48.872;9.390;2022-09-12T05:12:11;12.77;;;7.65;;
53718;SDS011;39616;48.872;9.390;2022-09-12T05:14:43;11.38;;;7.47;;
53718;SDS011;39616;48.872;9.390;2022-09-12T05:17:13;10.43;;;7.50;;
53718;SDS011;39616;48.872;9.390;2022-09-12T05:19:44;10.73;;;8.13;;
53718;SDS011;39616;48.872;9.390;2022-09-12T05:22:14;14.65;;;8.88;;
53718;SDS011;39616;48.872;9.390;2022-09-12T05:24:44;13.98;;;7.35;;
53718;SDS011;39616;48.872;9.390;2022-09-12T05:27:17;9.57;;;6.97;;
53718;SDS011;39616;48.872;9.390;2022-09-12T05:29:47;9.75;;;6.70;;
53718;SDS011;39616;48.872;9.390;2022-09-12T05:32:18;11.68;;;6.78;;
53718;SDS011;39616;48.872;9.390;2022-09-12T05:34:48;9.63;;;6.93;;
53718;SDS011;39616;48.872;9.390;2022-09-12T05:37:18;14.52;;;8.10;;
53718;SDS011;39616;48.872;9.390;2022-09-12T05:39:49;13.20;;;7.15;;
53718;SDS011;39616;48.872;9.390;2022-09-12T05:42:21;12.48;;;7.43;;
53718;SDS011;39616;48.872;9.390;2022-09-12T05:44:52;12.52;;;7.15;;
53718;SDS011;39616;48.872;9.390;2022-09-12T05:47:22;12.43;;;7.65;;
53718;SDS011;39616;48.872;9.390;2022-09-12T05:49:53;13.38;;;8.68;;
53718;SDS011;39616;48.872;9.390;2022-09-12T05:52:23;12.18;;;8.13;;
53718;SDS011;39616;48.872;9.390;2022-09-12T05:54:54;12.98;;;8.60;;
53718;SDS011;39616;48.872;9.390;2022-09-12T05:57:24;11.35;;;7.82;;
53718;SDS011;39616;48.872;9.390;2022-09-12T05:59:55;12.68;;;8.95;;
53718;SDS011;39616;48.872;9.390;2022-09-12T06:02:25;14.25;;;8.82;;
53718;SDS011;39616;48.872;9.390;2022-09-12T06:04:55;11.70;;;7.57;;
53718;SDS011;39616;48.872;9.390;2022-09-12T06:07:26;13.07;;;8.98;;
53718;SDS011;39616;48.872;9.390;2022-09-12T06:09:56;11.50;;;9.10;;
53718;SDS011;39616;48.872;9.390;2022-09-12T06:12:28;15.05;;;9.18;;
53718;SDS011;39616;48.872;9.390;2022-09-12T06:14:59;14.93;;;9.40;;
53718;SDS011;39616;48.872;9.390;2022-09-12T06:17:29;12.77;;;8.80;;
53718;SDS011;39616;48.872;9.390;2022-09-12T06:19:59;14.55;;;9.40;;
53718;SDS011;39616;48.872;9.390;2022-09-12T06:22:30;12.98;;;8.18;;
53718;SDS011;39616;48.872;9.390;2022-09-12T06:25:01;13.32;;;8.00;;
53718;SDS011;39616;48.872;9.390;2022-09-12T06:27:31;13.50;;;8.65;;
53718;SDS011;39616;48.872;9.390;2022-09-12T06:30:02;12.55;;;8.18;;
53718;SDS011;39616;48.872;9.390;2022-09-12T06:32:32;12.63;;;8.43;;
53718;SDS011;39616;48.872;9.390;2022-09-12T06:35:03;13.15;;;8.40;;
53718;SDS011;39616;48.872;9.390;2022-09-12T06:37:34;15.00;;;8.57;;
53718;SDS011;39616;48.872;9.390;2022-09-12T06:40:04;13.82;;;8.07;;
53718;SDS011;39616;48.872;9.390;2022-09-12T06:42:39;13.10;;;7.15;;
53718;SDS011;39616;48.872;9.390;2022-09-12T06:45:09;11.90;;;7.20;;
53718;SDS011;39616;48.872;9.390;2022-09-12T06:47:40;9.48;;;7.32;;
53718;SDS011;39616;48.872;9.390;2022-09-12T06:50:10;10.35;;;7.82;;
53718;SDS011;39616;48.872;9.390;2022-09-12T06:52:41;13.10;;;7.53;;
53718;SDS011;39616;48.872;9.390;2022-09-12T06:55:11;8.18;;;6.68;;
53718;SDS011;39616;48.872;9.390;2022-09-12T06:57:41;9.43;;;6.78;;
53718;SDS011;39616;48.872;9.390;2022-09-12T07:00:13;11.68;;;6.07;;
53718;SDS011;39616;48.872;9.390;2022-09-12T07:02:43;9.18;;;7.10;;
53718;SDS011;39616;48.872;9.390;2022-09-12T07:05:13;9.45;;;6.50;;
53718;SDS011;39616;48.872;9.390;2022-09-12T07:07:44;12.15;;;6.47;;
53718;SDS011;39616;48.872;9.390;2022-09-12T07:10:14;7.88;;;5.55;;
53718;SDS011;39616;48.872;9.390;2022-09-12T07:12:45;7.68;;;6.35;;
53718;SDS011;39616;48.872;9.390;2022-09-12T07:15:16;6.70;;;6.00;;
53718;SDS011;39616;48.872;9.390;2022-09-12T07:17:47;9.07;;;6.05;;
53718;SDS011;39616;48.872;9.390;2022-09-12T07:20:17;9.57;;;6.18;;
53718;SDS011;39616;48.872;9.390;2022-09-12T07:22:47;10.27;;;6.45;;
53718;SDS011;39616;48.872;9.390;2022-09-12T07:25:17;9.05;;;6.43;;
53718;SDS011;39616;48.872;9.390;2022-09-12T07:27:48;10.77;;;5.30;;
53718;SDS011;39616;48.872;9.390;2022-09-12T07:30:18;7.38;;;5.65;;
53718;SDS011;39616;48.872;9.390;2022-09-12T07:32:52;6.93;;;5.45;;
53718;SDS011;39616;48.872;9.390;2022-09-12T07:35:23;9.50;;;5.47;;
53718;SDS011;39616;48.872;9.390;2022-09-12T07:37:53;12.50;;;6.50;;
53718;SDS011;39616;48.872;9.390;2022-09-12T07:40:23;6.60;;;5.70;;
53718;SDS011;39616;48.872;9.390;2022-09-12T07:42:54;8.77;;;5.47;;
53718;SDS011;39616;48.872;9.390;2022-09-12T07:45:24;7.53;;;5.82;;
53718;SDS011;39616;48.872;9.390;2022-09-12T07:47:55;6.13;;;5.25;;
53718;SDS011;39616;48.872;9.390;2022-09-12T07:50:26;7.50;;;5.72;;
53718;SDS011;39616;48.872;9.390;2022-09-12T07:52:56;8.95;;;5.28;;
53718;SDS011;39616;48.872;9.390;2022-09-12T07:55:26;7.07;;;5.53;;
53718;SDS011;39616;48.872;9.390;2022-09-12T07:57:56;10.15;;;4.90;;
53718;SDS011;39616;48.872;9.390;2022-09-12T08:00:27;7.43;;;5.35;;
53718;SDS011;39616;48.872;9.390;2022-09-12T08:03:04;6.78;;;5.07;;
53718;SDS011;39616;48.872;9.390;2022-09-12T08:05:36;7.50;;;5.65;;
53718;SDS011;39616;48.872;9.390;2022-09-12T08:08:06;6.13;;;5.30;;
53718;SDS011;39616;48.872;9.390;2022-09-12T08:10:37;7.68;;;4.82;;
53718;SDS011;39616;48.872;9.390;2022-09-12T08:13:07;7.47;;;5.10;;
53718;SDS011;39616;48.872;9.390;2022-09-12T08:15:37;7.85;;;4.78;;
53718;SDS011;39616;48.872;9.390;2022-09-12T08:18:08;6.03;;;4.88;;
53718;SDS011;39616;48.872;9.390;2022-09-12T08:20:38;6.18;;;4.80;;
53718;SDS011;39616;48.872;9.390;2022-09-12T08:23:08;5.18;;;4.53;;
53718;SDS011;39616;48.872;9.390;2022-09-12T08:25:38;6.55;;;4.65;;
53718;SDS011;39616;48.872;9.390;2022-09-12T08:28:09;7.65;;;3.95;;
53718;SDS011;39616;48.872;9.390;2022-09-12T08:30:39;7.07;;;4.50;;
53718;SDS011;39616;48.872;9.390;2022-09-12T08:33:09;5.70;;;4.28;;
53718;SDS011;39616;48.872;9.390;2022-09-12T08:35:40;5.05;;;4.15;;
53718;SDS011;39616;48.872;9.390;2022-09-12T08:38:10;5.90;;;4.15;;
53718;SDS011;39616;48.872;9.390;2022-09-12T08:40:46;5.78;;;3.92;;
53718;SDS011;39616;48.872;9.390;2022-09-12T08:43:32;6.10;;;4.35;;
53718;SDS011;39616;48.872;9.390;2022-09-12T08:46:22;4.68;;;3.80;;
53718;SDS011;39616;48.872;9.390;2022-09-12T08:51:44;7.30;;;3.47;;
53718;SDS011;39616;48.872;9.390;2022-09-12T08:54:24;5.70;;;3.88;;
53718;SDS011;39616;48.872;9.390;2022-09-12T08:57:00;5.00;;;3.47;;
53718;SDS011;39616;48.872;9.390;2022-09-12T08:59:37;2.67;;;2.47;;
53718;SDS011;39616;48.872;9.390;2022-09-12T09:10:52;2.28;;;1.70;;
53718;SDS011;39616;48.872;9.390;2022-09-12T09:19:05;2.95;;;1.50;;
53718;SDS011;39616;48.872;9.390;2022-09-12T09:22:01;2.25;;;1.33;;
53718;SDS011;39616;48.872;9.390;2022-09-12T09:24:37;1.42;;;1.27;;
53718;SDS011;39616;48.872;9.390;2022-09-12T09:27:14;1.20;;;1.10;;
53718;SDS011;39616;48.872;9.390;2022-09-12T09:30:01;1.27;;;1.15;;
53718;SDS011;39616;48.872;9.390;2022-09-12T09:32:33;1.27;;;1.17;;
53718;SDS011;39616;48.872;9.390;2022-09-12T09:35:14;1.38;;;1.27;;
53718;SDS011;39616;48.872;9.390;2022-09-12T09:43:33;3.55;;;1.10;;
53718;SDS011;39616;48.872;9.390;2022-09-12T09:46:03;1.00;;;1.00;;
53718;SDS011;39616;48.872;9.390;2022-09-12T09:48:39;4.65;;;1.10;;
53718;SDS011;39616;48.872;9.390;2022-09-12T09:51:15;2.85;;;1.10;;
53718;SDS011;39616;48.872;9.390;2022-09-12T09:53:59;2.20;;;1.00;;
53718;SDS011;39616;48.872;9.390;2022-09-12T09:59:29;2.30;;;1.20;;
53718;SDS011;39616;48.872;9.390;2022-09-12T10:02:00;1.10;;;1.00;;
53718;SDS011;39616;48.872;9.390;2022-09-12T10:04:33;1.77;;;1.20;;
53718;SDS011;39616;48.872;9.390;2022-09-12T10:07:16;1.95;;;1.20;;
53718;SDS011;39616;48.872;9.390;2022-09-12T10:10:05;1.77;;;1.00;;
53718;SDS011;39616;48.872;9.390;2022-09-12T10:12:43;1.38;;;1.27;;
53718;SDS011;39616;48.872;9.390;2022-09-12T10:15:24;4.03;;;0.90;;
53718;SDS011;39616;48.872;9.390;2022-09-12T10:17:55;0.90;;;0.90;;
53718;SDS011;39616;48.872;9.390;2022-09-12T10:26:08;2.42;;;1.50;;
53718;SDS011;39616;48.872;9.390;2022-09-12T10:28:44;2.45;;;1.17;;
53718;SDS011;39616;48.872;9.390;2022-09-12T10:31:32;1.30;;;0.95;;
53718;SDS011;39616;48.872;9.390;2022-09-12T10:37:20;1.42;;;0.90;;
53718;SDS011;39616;48.872;9.390;2022-09-12T10:39:55;2.78;;;1.00;;
53718;SDS011;39616;48.872;9.390;2022-09-12T10:42:47;3.45;;;1.58;;
53718;SDS011;39616;48.872;9.390;2022-09-12T10:45:35;2.15;;;1.00;;
53718;SDS011;39616;48.872;9.390;2022-09-12T10:51:04;1.52;;;0.82;;
53718;SDS011;39616;48.872;9.390;2022-09-12T10:53:41;1.00;;;0.80;;
53718;SDS011;39616;48.872;9.390;2022-09-12T10:56:18;0.82;;;0.80;;
53718;SDS011;39616;48.872;9.390;2022-09-12T10:58:55;5.20;;;1.52;;
53718;SDS011;39616;48.872;9.390;2022-09-12T11:01:37;2.88;;;1.10;;
53718;SDS011;39616;48.872;9.390;2022-09-12T11:07:46;0.80;;;0.80;;
53718;SDS011;39616;48.872;9.390;2022-09-12T11:10:40;2.15;;;0.90;;
53718;SDS011;39616;48.872;9.390;2022-09-12T11:13:37;1.33;;;0.70;;
53718;SDS011;39616;48.872;9.390;2022-09-12T11:16:43;1.13;;;0.80;;
53718;SDS011;39616;48.872;9.390;2022-09-12T11:19:24;0.93;;;0.82;;
53718;SDS011;39616;48.872;9.390;2022-09-12T11:27:45;0.70;;;0.70;;
53718;SDS011;39616;48.872;9.390;2022-09-12T11:30:32;3.00;;;0.70;;
53718;SDS011;39616;48.872;9.390;2022-09-12T11:33:13;0.63;;;0.63;;
53718;SDS011;39616;48.872;9.390;2022-09-12T11:35:57;0.70;;;0.70;;
53718;SDS011;39616;48.872;9.390;2022-09-12T11:38:46;0.63;;;0.63;;
53718;SDS011;39616;48.872;9.390;2022-09-12T11:41:23;1.38;;;0.90;;
53718;SDS011;39616;48.872;9.390;2022-09-12T11:44:09;0.82;;;0.82;;
53718;SDS011;39616;48.872;9.390;2022-09-12T11:46:44;1.27;;;0.77;;
53718;SDS011;39616;48.872;9.390;2022-09-12T11:49:36;0.80;;;0.80;;
53718;SDS011;39616;48.872;9.390;2022-09-12T11:54:41;1.03;;;0.60;;
53718;SDS011;39616;48.872;9.390;2022-09-12T11:57:17;1.20;;;0.60;;
53718;SDS011;39616;48.872;9.390;2022-09-12T12:00:03;0.80;;;0.80;;
53718;SDS011;39616;48.872;9.390;2022-09-12T12:05:25;1.73;;;0.88;;
53718;SDS011;39616;48.872;9.390;2022-09-12T12:08:00;1.00;;;0.77;;
53718;SDS011;39616;48.872;9.390;2022-09-12T12:10:35;1.92;;;0.77;;
53718;SDS011;39616;48.872;9.390;2022-09-12T12:15:44;0.80;;;0.80;;
53718;SDS011;39616;48.872;9.390;2022-09-12T12:18:18;1.20;;;0.70;;
53718;SDS011;39616;48.872;9.390;2022-09-12T12:20:52;0.73;;;0.60;;
53718;SDS011;39616;48.872;9.390;2022-09-12T12:23:25;0.60;;;0.60;;
53718;SDS011;39616;48.872;9.390;2022-09-12T12:26:02;0.70;;;0.70;;
53718;SDS011;39616;48.872;9.390;2022-09-12T12:31:19;0.88;;;0.50;;
53718;SDS011;39616;48.872;9.390;2022-09-12T12:33:51;0.50;;;0.50;;
53718;SDS011;39616;48.872;9.390;2022-09-12T12:36:44;1.15;;;0.50;;
53718;SDS011;39616;48.872;9.390;2022-09-12T12:42:02;1.02;;;0.70;;
53718;SDS011;39616;48.872;9.390;2022-09-12T12:44:46;1.48;;;0.63;;
53718;SDS011;39616;48.872;9.390;2022-09-12T12:47:22;0.50;;;0.50;;
53718;SDS011;39616;48.872;9.390;2022-09-12T12:50:01;1.42;;;0.57;;
53718;SDS011;39616;48.872;9.390;2022-09-12T12:55:59;1.98;;;0.50;;
53718;SDS011;39616;48.872;9.390;2022-09-12T12:58:31;0.95;;;0.50;;
53718;SDS011;39616;48.872;9.390;2022-09-12T13:01:11;0.60;;;0.60;;
53718;SDS011;39616;48.872;9.390;2022-09-12T13:03:45;1.13;;;0.38;;
53718;SDS011;39616;48.872;9.390;2022-09-12T13:06:35;0.43;;;0.43;;
53718;SDS011;39616;48.872;9.390;2022-09-12T13:09:25;2.05;;;0.50;;
53718;SDS011;39616;48.872;9.390;2022-09-12T13:12:02;0.40;;;0.40;;
53718;SDS011;39616;48.872;9.390;2022-09-12T13:20:02;0.50;;;0.50;;
53718;SDS011;39616;48.872;9.390;2022-09-12T13:22:37;0.90;;;0.45;;
53718;SDS011;39616;48.872;9.390;2022-09-12T13:25:44;0.43;;;0.43;;
53718;SDS011;39616;48.872;9.390;2022-09-12T13:30:39;0.50;;;0.50;;
53718;SDS011;39616;48.872;9.390;2022-09-12T13:33:17;1.05;;;0.65;;
53718;SDS011;39616;48.872;9.390;2022-09-12T13:38:31;0.82;;;0.60;;
53718;SDS011;39616;48.872;9.390;2022-09-12T13:43:56;0.57;;;0.57;;
53718;SDS011;39616;48.872;9.390;2022-09-12T13:46:28;0.55;;;0.55;;
53718;SDS011;39616;48.872;9.390;2022-09-12T13:49:17;1.13;;;0.70;;
53718;SDS011;39616;48.872;9.390;2022-09-12T13:51:53;1.15;;;0.60;;
53718;SDS011;39616;48.872;9.390;2022-09-12T13:54:29;2.05;;;0.60;;
53718;SDS011;39616;48.872;9.390;2022-09-12T13:57:00;2.75;;;0.50;;
53718;SDS011;39616;48.872;9.390;2022-09-12T13:59:40;0.50;;;0.50;;
53718;SDS011;39616;48.872;9.390;2022-09-12T14:02:18;0.50;;;0.50;;
53718;SDS011;39616;48.872;9.390;2022-09-12T14:04:51;0.60;;;0.60;;
53718;SDS011;39616;48.872;9.390;2022-09-12T14:10:28;0.50;;;0.50;;
53718;SDS011;39616;48.872;9.390;2022-09-12T14:13:01;0.75;;;0.43;;
53718;SDS011;39616;48.872;9.390;2022-09-12T14:15:48;0.68;;;0.40;;
53718;SDS011;39616;48.872;9.390;2022-09-12T14:18:28;0.50;;;0.50;;
53718;SDS011;39616;48.872;9.390;2022-09-12T14:21:09;0.93;;;0.50;;
53718;SDS011;39616;48.872;9.390;2022-09-12T14:23:41;0.57;;;0.52;;
53718;SDS011;39616;48.872;9.390;2022-09-12T14:26:16;1.10;;;0.63;;
53718;SDS011;39616;48.872;9.390;2022-09-12T14:28:47;1.08;;;0.50;;
53718;SDS011;39616;48.872;9.390;2022-09-12T14:33:55;0.50;;;0.50;;
53718;SDS011;39616;48.872;9.390;2022-09-12T14:36:39;0.60;;;0.60;;
53718;SDS011;39616;48.872;9.390;2022-09-12T14:45:00;0.50;;;0.50;;
53718;SDS011;39616;48.872;9.390;2022-09-12T14:47:37;0.57;;;0.57;;
53718;SDS011;39616;48.872;9.390;2022-09-12T14:50:16;0.95;;;0.70;;
53718;SDS011;39616;48.872;9.390;2022-09-12T14:53:03;0.85;;;0.60;;
53718;SDS011;39616;48.872;9.390;2022-09-12T14:55:41;0.55;;;0.55;;
53718;SDS011;39616;48.872;9.390;2022-09-12T15:01:19;0.77;;;0.60;;
53718;SDS011;39616;48.872;9.390;2022-09-12T15:03:52;0.70;;;0.70;;
53718;SDS011;39616;48.872;9.390;2022-09-12T15:06:26;2.42;;;0.60;;
53718;SDS011;39616;48.872;9.390;2022-09-12T15:08:59;0.60;;;0.60;;
53718;SDS011;39616;48.872;9.390;2022-09-12T15:11:40;0.60;;;0.60;;
53718;SDS011;39616;48.872;9.390;2022-09-12T15:14:11;0.50;;;0.50;;
53718;SDS011;39616;48.872;9.390;2022-09-12T15:16:42;5.35;;;0.63;;
53718;SDS011;39616;48.872;9.390;2022-09-12T15:19:13;0.80;;;0.50;;
53718;SDS011;39616;48.872;9.390;2022-09-12T15:21:43;0.80;;;0.52;;
53718;SDS011;39616;48.872;9.390;2022-09-12T15:24:14;0.73;;;0.57;;
53718;SDS011;39616;48.872;9.390;2022-09-12T15:26:44;0.70;;;0.63;;
53718;SDS011;39616;48.872;9.390;2022-09-12T15:29:14;0.80;;;0.60;;
53718;SDS011;39616;48.872;9.390;2022-09-12T15:31:45;3.22;;;0.60;;
53718;SDS011;39616;48.872;9.390;2022-09-12T15:34:18;0.73;;;0.60;;
53718;SDS011;39616;48.872;9.390;2022-09-12T15:36:49;1.15;;;0.60;;
53718;SDS011;39616;48.872;9.390;2022-09-12T15:39:19;0.63;;;0.60;;
53718;SDS011;39616;48.872;9.390;2022-09-12T15:41:49;0.60;;;0.60;;
53718;SDS011;39616;48.872;9.390;2022-09-12T15:44:20;0.50;;;0.50;;
53718;SDS011;39616;48.872;9.390;2022-09-12T15:46:52;2.25;;;0.60;;
53718;SDS011;39616;48.872;9.390;2022-09-12T15:49:23;3.95;;;0.65;;
53718;SDS011;39616;48.872;9.390;2022-09-12T15:51:53;1.02;;;0.63;;
53718;SDS011;39616;48.872;9.390;2022-09-12T15:54:23;0.80;;;0.70;;
53718;SDS011;39616;48.872;9.390;2022-09-12T15:56:54;2.47;;;0.60;;
53718;SDS011;39616;48.872;9.390;2022-09-12T15:59:24;0.50;;;0.50;;
53718;SDS011;39616;48.872;9.390;2022-09-12T16:01:54;1.23;;;0.60;;
53718;SDS011;39616;48.872;9.390;2022-09-12T16:04:26;0.50;;;0.50;;
53718;SDS011;39616;48.872;9.390;2022-09-12T16:06:57;0.95;;;0.60;;
53718;SDS011;39616;48.872;9.390;2022-09-12T16:09:28;1.13;;;0.70;;
53718;SDS011;39616;48.872;9.390;2022-09-12T16:11:58;0.70;;;0.60;;
53718;SDS011;39616;48.872;9.390;2022-09-12T16:14:29;3.45;;;0.60;;
53718;SDS011;39616;48.872;9.390;2022-09-12T16:16:59;0.60;;;0.60;;
53718;SDS011;39616;48.872;9.390;2022-09-12T16:19:30;0.90;;;0.70;;
53718;SDS011;39616;48.872;9.390;2022-09-12T16:22:00;1.00;;;0.70;;
53718;SDS011;39616;48.872;9.390;2022-09-12T16:24:30;0.85;;;0.63;;
53718;SDS011;39616;48.872;9.390;2022-09-12T16:27:01;0.60;;;0.60;;
53718;SDS011;39616;48.872;9.390;2022-09-12T16:29:31;0.60;;;0.60;;
53718;SDS011;39616;48.872;9.390;2022-09-12T16:32:02;0.60;;;0.60;;
53718;SDS011;39616;48.872;9.390;2022-09-12T16:34:32;0.70;;;0.60;;
53718;SDS011;39616;48.872;9.390;2022-09-12T16:37:03;0.70;;;0.70;;
53718;SDS011;39616;48.872;9.390;2022-09-12T16:39:33;0.93;;;0.80;;
53718;SDS011;39616;48.872;9.390;2022-09-12T16:42:04;1.00;;;0.60;;
53718;SDS011;39616;48.872;9.390;2022-09-12T16:44:34;0.73;;;0.73;;
53718;SDS011;39616;48.872;9.390;2022-09-12T16:47:04;0.70;;;0.60;;
53718;SDS011;39616;48.872;9.390;2022-09-12T16:49:35;0.85;;;0.60;;
53718;SDS011;39616;48.872;9.390;2022-09-12T16:52:05;2.63;;;0.70;;
53718;SDS011;39616;48.872;9.390;2022-09-12T16:54:36;2.90;;;0.68;;
53718;SDS011;39616;48.872;9.390;2022-09-12T16:57:06;0.60;;;0.60;;
53718;SDS011;39616;48.872;9.390;2022-09-12T16:59:36;3.60;;;0.70;;
53718;SDS011;39616;48.872;9.390;2022-09-12T17:02:10;2.65;;;0.60;;
53718;SDS011;39616;48.872;9.390;2022-09-12T17:04:41;1.40;;;0.80;;
53718;SDS011;39616;48.872;9.390;2022-09-12T17:07:11;1.80;;;0.70;;
53718;SDS011;39616;48.872;9.390;2022-09-12T17:09:42;1.00;;;0.90;;
53718;SDS011;39616;48.872;9.390;2022-09-12T17:12:12;0.77;;;0.70;;
53718;SDS011;39616;48.872;9.390;2022-09-12T17:14:43;1.40;;;0.70;;
53718;SDS011;39616;48.872;9.390;2022-09-12T17:17:13;1.60;;;0.70;;
53718;SDS011;39616;48.872;9.390;2022-09-12T17:19:43;1.90;;;0.80;;
53718;SDS011;39616;48.872;9.390;2022-09-12T17:22:14;0.93;;;0.70;;
53718;SDS011;39616;48.872;9.390;2022-09-12T17:24:44;2.75;;;0.80;;
53718;SDS011;39616;48.872;9.390;2022-09-12T17:27:14;2.05;;;0.80;;
53718;SDS011;39616;48.872;9.390;2022-09-12T17:29:44;0.75;;;0.70;;
53718;SDS011;39616;48.872;9.390;2022-09-12T17:32:15;0.80;;;0.80;;
53718;SDS011;39616;48.872;9.390;2022-09-12T17:34:45;1.00;;;0.75;;
53718;SDS011;39616;48.872;9.390;2022-09-12T17:37:15;0.63;;;0.63;;
53718;SDS011;39616;48.872;9.390;2022-09-12T17:39:46;0.93;;;0.75;;
53718;SDS011;39616;48.872;9.390;2022-09-12T17:42:16;1.63;;;0.80;;
53718;SDS011;39616;48.872;9.390;2022-09-12T17:44:47;1.00;;;0.80;;
53718;SDS011;39616;48.872;9.390;2022-09-12T17:47:19;2.60;;;0.85;;